Petersburg, Ohio
Current Conditions -  °F | °C
As of 8:47 AM on Friday 24 Oct 2014 (Local Time) from KBVI Reporting Station
Broken Clouds Broken Clouds  
Wind Chill: 41°   Ceiling: 1900
Heat Index: 41°   Visibility: 10mi
Dew Point: 39°   Wind: 0mph
Humidity: 93%   Direction: NA
Pressure: 30.1"   Gusts: NA
Location:  40.91°N, 80.53°W
Report Text: KBVI 241247Z 00000KT 10SM BKN019 05/04 A3010
Loading
Personal Weather Stations






























Interactive Weather Map
Tropical Storm Tracking
New forecast layout! Learn more

10-Day Weather Forecast

Advertisements
Track Severe Weather on mobile